sensor_id;sensor_type;location;lat;lon;timestamp;P1;durP1;ratioP1;P2;durP2;ratioP2
24102;SDS011;12278;53.058;9.028;2022-08-19T00:00:40;6.65;;;5.32;;
24102;SDS011;12278;53.058;9.028;2022-08-19T00:04:41;9.63;;;5.70;;
24102;SDS011;12278;53.058;9.028;2022-08-19T00:08:42;7.78;;;5.25;;
24102;SDS011;12278;53.058;9.028;2022-08-19T00:12:43;6.57;;;5.88;;
24102;SDS011;12278;53.058;9.028;2022-08-19T00:16:46;6.68;;;4.95;;
24102;SDS011;12278;53.058;9.028;2022-08-19T00:20:47;7.68;;;5.47;;
24102;SDS011;12278;53.058;9.028;2022-08-19T00:24:48;7.28;;;5.55;;
24102;SDS011;12278;53.058;9.028;2022-08-19T00:28:49;6.03;;;5.00;;
24102;SDS011;12278;53.058;9.028;2022-08-19T00:32:50;6.57;;;5.82;;
24102;SDS011;12278;53.058;9.028;2022-08-19T00:36:51;5.78;;;4.95;;
24102;SDS011;12278;53.058;9.028;2022-08-19T00:40:52;5.55;;;4.90;;
24102;SDS011;12278;53.058;9.028;2022-08-19T00:44:54;7.30;;;4.90;;
24102;SDS011;12278;53.058;9.028;2022-08-19T00:48:55;4.78;;;4.38;;
24102;SDS011;12278;53.058;9.028;2022-08-19T00:52:57;7.03;;;5.00;;
24102;SDS011;12278;53.058;9.028;2022-08-19T00:57:00;6.10;;;5.40;;
24102;SDS011;12278;53.058;9.028;2022-08-19T01:01:06;7.78;;;5.50;;
24102;SDS011;12278;53.058;9.028;2022-08-19T01:05:10;7.38;;;4.63;;
24102;SDS011;12278;53.058;9.028;2022-08-19T01:09:15;6.18;;;4.80;;
24102;SDS011;12278;53.058;9.028;2022-08-19T01:13:21;5.72;;;4.60;;
24102;SDS011;12278;53.058;9.028;2022-08-19T01:17:26;6.25;;;4.82;;
24102;SDS011;12278;53.058;9.028;2022-08-19T01:29:45;4.72;;;3.88;;
24102;SDS011;12278;53.058;9.028;2022-08-19T01:33:46;6.63;;;4.45;;
24102;SDS011;12278;53.058;9.028;2022-08-19T01:37:57;6.60;;;4.28;;
24102;SDS011;12278;53.058;9.028;2022-08-19T01:42:06;5.05;;;4.45;;
24102;SDS011;12278;53.058;9.028;2022-08-19T01:46:11;5.80;;;4.25;;
24102;SDS011;12278;53.058;9.028;2022-08-19T01:50:12;8.45;;;5.18;;
24102;SDS011;12278;53.058;9.028;2022-08-19T01:54:14;6.28;;;4.47;;
24102;SDS011;12278;53.058;9.028;2022-08-19T01:58:19;4.50;;;3.90;;
24102;SDS011;12278;53.058;9.028;2022-08-19T02:02:26;6.10;;;3.92;;
24102;SDS011;12278;53.058;9.028;2022-08-19T02:06:27;4.68;;;4.18;;
24102;SDS011;12278;53.058;9.028;2022-08-19T02:10:29;4.13;;;3.78;;
24102;SDS011;12278;53.058;9.028;2022-08-19T02:14:30;4.13;;;3.75;;
24102;SDS011;12278;53.058;9.028;2022-08-19T02:18:34;5.45;;;4.00;;
24102;SDS011;12278;53.058;9.028;2022-08-19T02:22:35;4.63;;;4.00;;
24102;SDS011;12278;53.058;9.028;2022-08-19T02:26:36;6.88;;;4.15;;
24102;SDS011;12278;53.058;9.028;2022-08-19T02:30:37;5.53;;;4.80;;
24102;SDS011;12278;53.058;9.028;2022-08-19T02:34:40;7.28;;;4.63;;
24102;SDS011;12278;53.058;9.028;2022-08-19T02:38:43;5.93;;;5.07;;
24102;SDS011;12278;53.058;9.028;2022-08-19T02:42:45;7.28;;;5.40;;
24102;SDS011;12278;53.058;9.028;2022-08-19T02:46:46;6.28;;;5.05;;
24102;SDS011;12278;53.058;9.028;2022-08-19T02:50:50;8.02;;;4.85;;
24102;SDS011;12278;53.058;9.028;2022-08-19T02:54:55;5.93;;;5.25;;
24102;SDS011;12278;53.058;9.028;2022-08-19T02:58:57;6.35;;;5.20;;
24102;SDS011;12278;53.058;9.028;2022-08-19T03:02:58;6.47;;;5.55;;
24102;SDS011;12278;53.058;9.028;2022-08-19T03:07:00;9.07;;;5.63;;
24102;SDS011;12278;53.058;9.028;2022-08-19T03:11:01;6.38;;;5.70;;
24102;SDS011;12278;53.058;9.028;2022-08-19T03:15:04;6.22;;;5.68;;
24102;SDS011;12278;53.058;9.028;2022-08-19T03:19:07;6.85;;;6.15;;
24102;SDS011;12278;53.058;9.028;2022-08-19T03:23:08;6.70;;;5.45;;
24102;SDS011;12278;53.058;9.028;2022-08-19T03:27:09;7.93;;;6.10;;
24102;SDS011;12278;53.058;9.028;2022-08-19T03:31:12;7.93;;;5.80;;
24102;SDS011;12278;53.058;9.028;2022-08-19T03:35:15;7.75;;;5.60;;
24102;SDS011;12278;53.058;9.028;2022-08-19T03:39:16;9.40;;;6.03;;
24102;SDS011;12278;53.058;9.028;2022-08-19T03:43:18;7.00;;;5.95;;
24102;SDS011;12278;53.058;9.028;2022-08-19T03:47:19;6.18;;;5.57;;
24102;SDS011;12278;53.058;9.028;2022-08-19T03:51:24;6.95;;;5.68;;
24102;SDS011;12278;53.058;9.028;2022-08-19T03:55:32;6.57;;;6.03;;
24102;SDS011;12278;53.058;9.028;2022-08-19T03:59:34;5.93;;;5.30;;
24102;SDS011;12278;53.058;9.028;2022-08-19T04:03:37;5.93;;;5.43;;
24102;SDS011;12278;53.058;9.028;2022-08-19T04:07:39;8.25;;;5.75;;
24102;SDS011;12278;53.058;9.028;2022-08-19T04:11:42;7.75;;;5.55;;
24102;SDS011;12278;53.058;9.028;2022-08-19T04:15:53;5.60;;;5.10;;
24102;SDS011;12278;53.058;9.028;2022-08-19T04:19:54;5.97;;;4.60;;
24102;SDS011;12278;53.058;9.028;2022-08-19T04:23:55;5.43;;;4.65;;
24102;SDS011;12278;53.058;9.028;2022-08-19T04:27:57;6.88;;;4.93;;
24102;SDS011;12278;53.058;9.028;2022-08-19T04:31:58;6.82;;;4.40;;
24102;SDS011;12278;53.058;9.028;2022-08-19T04:36:00;5.18;;;4.40;;
24102;SDS011;12278;53.058;9.028;2022-08-19T04:40:01;4.20;;;3.80;;
24102;SDS011;12278;53.058;9.028;2022-08-19T04:44:42;6.40;;;4.10;;
24102;SDS011;12278;53.058;9.028;2022-08-19T04:48:43;5.43;;;4.43;;
24102;SDS011;12278;53.058;9.028;2022-08-19T04:52:44;4.88;;;4.03;;
24102;SDS011;12278;53.058;9.028;2022-08-19T04:56:45;5.47;;;3.78;;
24102;SDS011;12278;53.058;9.028;2022-08-19T05:00:46;4.38;;;3.97;;
24102;SDS011;12278;53.058;9.028;2022-08-19T05:04:47;4.25;;;3.85;;
24102;SDS011;12278;53.058;9.028;2022-08-19T05:08:48;5.78;;;4.35;;
24102;SDS011;12278;53.058;9.028;2022-08-19T05:12:50;4.53;;;3.92;;
24102;SDS011;12278;53.058;9.028;2022-08-19T05:16:50;5.50;;;3.95;;
24102;SDS011;12278;53.058;9.028;2022-08-19T05:20:51;4.60;;;3.88;;
24102;SDS011;12278;53.058;9.028;2022-08-19T05:25:12;5.75;;;4.65;;
24102;SDS011;12278;53.058;9.028;2022-08-19T05:29:20;6.03;;;4.15;;
24102;SDS011;12278;53.058;9.028;2022-08-19T05:33:23;4.47;;;4.07;;
24102;SDS011;12278;53.058;9.028;2022-08-19T05:37:24;3.92;;;3.63;;
24102;SDS011;12278;53.058;9.028;2022-08-19T05:41:27;5.05;;;4.55;;
24102;SDS011;12278;53.058;9.028;2022-08-19T05:45:29;4.45;;;4.05;;
24102;SDS011;12278;53.058;9.028;2022-08-19T05:49:30;4.88;;;4.38;;
24102;SDS011;12278;53.058;9.028;2022-08-19T05:53:35;8.20;;;4.90;;
24102;SDS011;12278;53.058;9.028;2022-08-19T05:57:36;7.90;;;5.28;;
24102;SDS011;12278;53.058;9.028;2022-08-19T06:01:38;6.18;;;4.72;;
24102;SDS011;12278;53.058;9.028;2022-08-19T06:05:43;6.20;;;5.30;;
24102;SDS011;12278;53.058;9.028;2022-08-19T06:09:43;7.35;;;5.40;;
24102;SDS011;12278;53.058;9.028;2022-08-19T06:13:45;6.72;;;6.13;;
24102;SDS011;12278;53.058;9.028;2022-08-19T06:17:50;6.85;;;5.95;;
24102;SDS011;12278;53.058;9.028;2022-08-19T06:21:52;8.45;;;5.75;;
24102;SDS011;12278;53.058;9.028;2022-08-19T06:25:53;5.90;;;5.22;;
24102;SDS011;12278;53.058;9.028;2022-08-19T06:29:55;6.30;;;5.47;;
24102;SDS011;12278;53.058;9.028;2022-08-19T06:33:57;6.53;;;5.90;;
24102;SDS011;12278;53.058;9.028;2022-08-19T06:37:57;6.50;;;5.90;;
24102;SDS011;12278;53.058;9.028;2022-08-19T06:42:02;7.90;;;6.13;;
24102;SDS011;12278;53.058;9.028;2022-08-19T06:46:09;9.02;;;5.95;;
24102;SDS011;12278;53.058;9.028;2022-08-19T06:50:17;7.75;;;6.93;;
24102;SDS011;12278;53.058;9.028;2022-08-19T06:54:20;8.65;;;7.03;;
24102;SDS011;12278;53.058;9.028;2022-08-19T06:58:23;9.55;;;7.13;;
24102;SDS011;12278;53.058;9.028;2022-08-19T07:02:24;9.13;;;6.90;;
24102;SDS011;12278;53.058;9.028;2022-08-19T07:10:31;7.15;;;6.45;;
24102;SDS011;12278;53.058;9.028;2022-08-19T07:14:33;6.80;;;6.10;;
24102;SDS011;12278;53.058;9.028;2022-08-19T07:18:38;8.07;;;7.22;;
24102;SDS011;12278;53.058;9.028;2022-08-19T07:22:41;8.05;;;6.28;;
24102;SDS011;12278;53.058;9.028;2022-08-19T07:26:42;6.30;;;5.70;;
24102;SDS011;12278;53.058;9.028;2022-08-19T07:30:43;5.88;;;5.38;;
24102;SDS011;12278;53.058;9.028;2022-08-19T07:34:44;8.65;;;5.55;;
24102;SDS011;12278;53.058;9.028;2022-08-19T07:38:48;5.18;;;4.47;;
24102;SDS011;12278;53.058;9.028;2022-08-19T07:42:51;8.13;;;4.88;;
24102;SDS011;12278;53.058;9.028;2022-08-19T07:46:54;5.22;;;4.43;;
24102;SDS011;12278;53.058;9.028;2022-08-19T07:50:58;6.70;;;4.10;;
24102;SDS011;12278;53.058;9.028;2022-08-19T07:55:03;4.30;;;3.90;;
24102;SDS011;12278;53.058;9.028;2022-08-19T07:59:07;4.35;;;4.00;;
24102;SDS011;12278;53.058;9.028;2022-08-19T08:03:10;4.57;;;4.18;;
24102;SDS011;12278;53.058;9.028;2022-08-19T08:07:13;5.90;;;3.92;;
24102;SDS011;12278;53.058;9.028;2022-08-19T08:11:32;3.50;;;3.20;;
24102;SDS011;12278;53.058;9.028;2022-08-19T08:15:33;6.25;;;3.67;;
24102;SDS011;12278;53.058;9.028;2022-08-19T08:19:35;3.45;;;3.15;;
24102;SDS011;12278;53.058;9.028;2022-08-19T08:23:37;5.53;;;3.67;;
24102;SDS011;12278;53.058;9.028;2022-08-19T08:27:39;4.50;;;3.72;;
24102;SDS011;12278;53.058;9.028;2022-08-19T08:31:43;4.28;;;3.55;;
24102;SDS011;12278;53.058;9.028;2022-08-19T08:35:44;3.40;;;3.10;;
24102;SDS011;12278;53.058;9.028;2022-08-19T08:39:46;4.45;;;3.58;;
24102;SDS011;12278;53.058;9.028;2022-08-19T08:43:48;4.00;;;3.60;;
24102;SDS011;12278;53.058;9.028;2022-08-19T08:47:52;6.40;;;4.15;;
24102;SDS011;12278;53.058;9.028;2022-08-19T08:52:10;4.53;;;3.75;;
24102;SDS011;12278;53.058;9.028;2022-08-19T08:56:29;3.58;;;3.30;;
24102;SDS011;12278;53.058;9.028;2022-08-19T09:00:36;5.03;;;4.63;;
24102;SDS011;12278;53.058;9.028;2022-08-19T09:04:42;5.18;;;4.03;;
24102;SDS011;12278;53.058;9.028;2022-08-19T09:17:29;4.97;;;4.00;;
24102;SDS011;12278;53.058;9.028;2022-08-19T09:21:33;5.47;;;4.28;;
24102;SDS011;12278;53.058;9.028;2022-08-19T09:25:34;4.70;;;4.30;;
24102;SDS011;12278;53.058;9.028;2022-08-19T09:29:35;5.15;;;4.65;;
24102;SDS011;12278;53.058;9.028;2022-08-19T09:33:36;4.60;;;4.20;;
24102;SDS011;12278;53.058;9.028;2022-08-19T09:37:38;5.57;;;4.38;;
24102;SDS011;12278;53.058;9.028;2022-08-19T09:41:39;4.55;;;4.15;;
24102;SDS011;12278;53.058;9.028;2022-08-19T09:45:39;4.78;;;4.22;;
24102;SDS011;12278;53.058;9.028;2022-08-19T09:49:40;4.88;;;4.40;;
24102;SDS011;12278;53.058;9.028;2022-08-19T09:53:42;3.85;;;3.47;;
24102;SDS011;12278;53.058;9.028;2022-08-19T09:57:49;6.95;;;3.83;;
24102;SDS011;12278;53.058;9.028;2022-08-19T10:01:53;4.18;;;3.78;;
24102;SDS011;12278;53.058;9.028;2022-08-19T10:05:55;3.97;;;3.60;;
24102;SDS011;12278;53.058;9.028;2022-08-19T10:09:58;4.30;;;3.90;;
24102;SDS011;12278;53.058;9.028;2022-08-19T10:13:59;4.25;;;3.45;;
24102;SDS011;12278;53.058;9.028;2022-08-19T10:18:02;3.42;;;3.13;;
24102;SDS011;12278;53.058;9.028;2022-08-19T10:22:04;3.88;;;3.55;;
24102;SDS011;12278;53.058;9.028;2022-08-19T10:26:07;3.58;;;3.20;;
24102;SDS011;12278;53.058;9.028;2022-08-19T10:30:08;3.55;;;2.75;;
24102;SDS011;12278;53.058;9.028;2022-08-19T10:34:10;3.67;;;3.17;;
24102;SDS011;12278;53.058;9.028;2022-08-19T10:38:10;6.28;;;3.10;;
24102;SDS011;12278;53.058;9.028;2022-08-19T10:42:11;2.97;;;2.78;;
24102;SDS011;12278;53.058;9.028;2022-08-19T10:46:14;3.60;;;2.92;;
24102;SDS011;12278;53.058;9.028;2022-08-19T10:50:15;3.88;;;3.05;;
24102;SDS011;12278;53.058;9.028;2022-08-19T10:54:35;3.60;;;3.30;;
24102;SDS011;12278;53.058;9.028;2022-08-19T10:58:54;5.13;;;3.03;;
24102;SDS011;12278;53.058;9.028;2022-08-19T11:02:57;6.97;;;3.00;;
24102;SDS011;12278;53.058;9.028;2022-08-19T11:06:58;4.28;;;2.67;;
24102;SDS011;12278;53.058;9.028;2022-08-19T11:11:00;3.38;;;2.40;;
24102;SDS011;12278;53.058;9.028;2022-08-19T11:15:03;4.18;;;2.75;;
24102;SDS011;12278;53.058;9.028;2022-08-19T11:19:04;2.83;;;2.50;;
24102;SDS011;12278;53.058;9.028;2022-08-19T11:23:10;4.43;;;2.40;;
24102;SDS011;12278;53.058;9.028;2022-08-19T11:27:11;2.50;;;2.30;;
24102;SDS011;12278;53.058;9.028;2022-08-19T11:31:19;2.28;;;2.13;;
24102;SDS011;12278;53.058;9.028;2022-08-19T11:35:23;3.50;;;2.25;;
24102;SDS011;12278;53.058;9.028;2022-08-19T11:39:24;3.05;;;1.92;;
24102;SDS011;12278;53.058;9.028;2022-08-19T11:43:28;3.05;;;2.00;;
24102;SDS011;12278;53.058;9.028;2022-08-19T11:47:29;3.00;;;1.95;;
24102;SDS011;12278;53.058;9.028;2022-08-19T11:51:31;2.67;;;1.45;;
24102;SDS011;12278;53.058;9.028;2022-08-19T11:55:36;1.88;;;1.63;;
24102;SDS011;12278;53.058;9.028;2022-08-19T11:59:40;1.90;;;1.70;;
24102;SDS011;12278;53.058;9.028;2022-08-19T12:03:41;1.75;;;1.42;;
24102;SDS011;12278;53.058;9.028;2022-08-19T12:07:44;1.75;;;1.50;;
24102;SDS011;12278;53.058;9.028;2022-08-19T12:11:45;2.90;;;1.60;;
24102;SDS011;12278;53.058;9.028;2022-08-19T12:15:46;2.50;;;1.50;;
24102;SDS011;12278;53.058;9.028;2022-08-19T12:19:47;1.77;;;1.58;;
24102;SDS011;12278;53.058;9.028;2022-08-19T12:23:50;2.45;;;1.60;;
24102;SDS011;12278;53.058;9.028;2022-08-19T12:27:51;3.58;;;1.70;;
24102;SDS011;12278;53.058;9.028;2022-08-19T12:31:52;2.63;;;1.33;;
24102;SDS011;12278;53.058;9.028;2022-08-19T12:35:53;5.20;;;1.47;;
24102;SDS011;12278;53.058;9.028;2022-08-19T12:39:54;1.77;;;1.20;;
24102;SDS011;12278;53.058;9.028;2022-08-19T12:43:55;2.45;;;1.70;;
24102;SDS011;12278;53.058;9.028;2022-08-19T12:47:56;1.42;;;1.33;;
24102;SDS011;12278;53.058;9.028;2022-08-19T12:51:57;2.20;;;1.40;;
24102;SDS011;12278;53.058;9.028;2022-08-19T12:56:00;2.03;;;1.45;;
24102;SDS011;12278;53.058;9.028;2022-08-19T13:04:15;1.70;;;1.20;;
24102;SDS011;12278;53.058;9.028;2022-08-19T13:08:16;2.38;;;1.10;;
24102;SDS011;12278;53.058;9.028;2022-08-19T13:12:17;1.35;;;1.17;;
